Main page
METAR-TAF:

METAR-TAF

Airports :

U-Tapao International Airport

Pattaya-Rayong, Thailand

latitude: 12-38N, longitude: 101-21E, elevation: 3 m

Current weather observation

The report was made 49 minutes ago, at 06:30 UTC
Wind 10 kt from the South/Southeast
Temperature 31°C
Humidity 71%
Pressure 1009 hPa
Visibility 10 km or more
Few clouds at a height of 2000 ft

METAR: VTBU 080630Z 16010KT 9999 FEW020 31/25 Q1009 NOSIG

Time: 14:19 (07:19 UTC)

Forecast

The report was made 2 hours and 19 minutes ago, at 05:00 UTC
Forecast valid from 08 at 06 UTC to 09 at 06 UTC
Wind 10 kt from the South
Visibility 10 km or more
Few clouds at a height of 2000 ft
Becoming
from 08 at 14 UTC to 08 at 16 UTC
Wind 4 kt from the North/Northwest
Becoming
from 09 at 00 UTC to 09 at 02 UTC
Wind 8 kt from the South

TAF: VTBU 080500Z 0806/0906 18010KT 9999 FEW020 BECMG 0814/0816 33004KT BECMG 0900/0902 18008KT

Weather observations and forecasts of more than 4000 airports (METAR and TAF reports).

The available stations are represented by yellow and red dots on the map.

Hover mouse over dot to see the name of the station.

Then click to see weather observations and forecasts.

To change the map : click on the green buttons with a black cross to zoom in, on the green button with a dash to zoom out, or on the green arrows for adjacent maps.


METAR-TAF: